createdAt,value
2018-05-04T00:02:00.584Z,73.04
2018-05-04T00:04:29.236Z,73.18
2018-05-04T00:06:57.625Z,73.23
2018-05-04T00:09:26.059Z,73.39
2018-05-04T00:11:54.449Z,73.61
2018-05-04T00:14:22.844Z,73.83
2018-05-04T00:16:51.235Z,73.72
2018-05-04T00:19:19.662Z,73.90
2018-05-04T00:21:48.066Z,74.08
2018-05-04T00:24:16.635Z,74.05
2018-05-04T00:26:45.021Z,74.26
2018-05-04T00:29:13.447Z,74.55
2018-05-04T00:31:41.862Z,74.48
2018-05-04T00:34:10.237Z,74.42
2018-05-04T00:36:38.638Z,74.63
2018-05-04T00:39:07.034Z,74.66
2018-05-04T00:41:35.430Z,74.41
2018-05-04T00:44:04.060Z,74.43
2018-05-04T00:46:32.446Z,74.65
2018-05-04T00:49:00.849Z,74.63
2018-05-04T00:51:29.236Z,74.56
2018-05-04T00:54:08.606Z,74.68
2018-05-04T00:56:36.977Z,74.78
2018-05-04T00:59:05.366Z,74.84
2018-05-04T01:01:33.848Z,74.60
2018-05-04T01:04:02.234Z,74.79
2018-05-04T01:06:30.648Z,74.61
2018-05-04T01:08:59.049Z,74.45
2018-05-04T01:11:27.450Z,74.58
2018-05-04T01:13:55.831Z,74.51
2018-05-04T01:16:24.228Z,74.59
2018-05-04T01:18:52.678Z,74.40
2018-05-04T01:21:21.067Z,74.58
2018-05-04T01:23:49.465Z,74.73
2018-05-04T01:26:17.861Z,74.48
2018-05-04T01:28:46.134Z,74.26
2018-05-04T01:31:14.506Z,74.54
2018-05-04T01:33:42.918Z,74.15
2018-05-04T01:36:11.325Z,74.24
2018-05-04T01:38:39.734Z,74.10
2018-05-04T01:41:08.128Z,74.27
2018-05-04T01:43:36.501Z,74.25
2018-05-04T01:46:04.547Z,74.09
2018-05-04T01:48:32.929Z,74.05
2018-05-04T01:51:01.313Z,74.26
2018-05-04T01:53:29.839Z,74.17
2018-05-04T01:55:58.273Z,74.20
2018-05-04T01:58:26.711Z,74.20
2018-05-04T02:00:55.113Z,74.18
2018-05-04T02:03:23.491Z,74.35
2018-05-04T02:05:51.893Z,74.39
2018-05-04T02:08:20.339Z,74.30
2018-05-04T02:10:48.736Z,74.41
2018-05-04T02:13:17.130Z,74.42
2018-05-04T02:15:45.509Z,74.47
2018-05-04T02:18:13.891Z,74.53
2018-05-04T02:20:42.261Z,74.65
2018-05-04T02:23:10.643Z,74.46
2018-05-04T02:25:39.096Z,74.46
2018-05-04T02:28:07.487Z,74.66
2018-05-04T02:30:35.671Z,74.71
2018-05-04T02:33:04.078Z,74.73
2018-05-04T02:35:32.504Z,74.62
2018-05-04T02:38:00.880Z,74.84
2018-05-04T02:40:29.267Z,74.91
2018-05-04T02:42:57.631Z,74.88
2018-05-04T02:45:26.005Z,74.82
2018-05-04T02:47:54.398Z,74.99
2018-05-04T02:50:22.776Z,74.87
2018-05-04T02:52:51.165Z,75.10
2018-05-04T02:55:19.971Z,75.12
2018-05-04T02:57:48.536Z,75.15
2018-05-04T03:00:16.910Z,75.22
2018-05-04T03:02:45.293Z,75.29
2018-05-04T03:05:13.731Z,75.30
2018-05-04T03:07:42.131Z,75.59
2018-05-04T03:10:10.537Z,75.35
2018-05-04T03:12:38.930Z,75.38
2018-05-04T03:15:09.076Z,75.39
2018-05-04T03:17:37.474Z,75.52
2018-05-04T03:20:05.309Z,75.50
2018-05-04T03:22:33.685Z,75.30
2018-05-04T03:25:02.065Z,75.18
2018-05-04T03:27:30.441Z,75.22
2018-05-04T03:29:58.843Z,75.28
2018-05-04T03:32:27.232Z,75.24
2018-05-04T03:34:56.213Z,75.11
2018-05-04T03:37:24.632Z,75.20
2018-05-04T03:39:54.665Z,75.23
2018-05-04T03:42:23.052Z,75.19
2018-05-04T03:44:51.427Z,75.41
2018-05-04T03:47:19.600Z,75.36
2018-05-04T03:49:48.014Z,75.18
2018-05-04T03:52:16.580Z,75.07
2018-05-04T03:54:44.692Z,75.13
2018-05-04T03:57:24.111Z,74.98
2018-05-04T04:00:03.657Z,75.15
2018-05-04T04:02:43.343Z,75.11
2018-05-04T04:05:11.727Z,75.40
2018-05-04T04:07:40.304Z,75.46
2018-05-04T04:10:10.321Z,75.37
2018-05-04T04:12:38.722Z,75.36
2018-05-04T04:15:10.100Z,75.27
2018-05-04T04:17:38.495Z,75.41
2018-05-04T04:20:09.304Z,75.28
2018-05-04T04:22:37.692Z,75.04
2018-05-04T04:25:06.184Z,75.06
2018-05-04T04:27:34.572Z,74.91
2018-05-04T04:30:02.980Z,75.05
2018-05-04T04:32:31.359Z,75.18
2018-05-04T04:34:59.938Z,75.05
2018-05-04T04:37:28.345Z,74.89
2018-05-04T04:39:56.752Z,75.10
2018-05-04T04:42:25.190Z,75.15
2018-05-04T04:44:53.579Z,75.13
2018-05-04T04:47:21.989Z,75.26
2018-05-04T04:49:50.382Z,75.29
2018-05-04T04:52:18.793Z,75.05
2018-05-04T04:54:47.184Z,74.96
2018-05-04T04:57:15.599Z,75.04
2018-05-04T04:59:44.015Z,74.82
2018-05-04T05:02:12.428Z,74.88
2018-05-04T05:04:40.812Z,74.96
2018-05-04T05:07:09.174Z,74.99
2018-05-04T05:09:37.317Z,75.08
2018-05-04T05:12:05.707Z,75.25
2018-05-04T05:14:34.092Z,75.36
2018-05-04T05:17:02.467Z,75.11
2018-05-04T05:19:30.849Z,75.15
2018-05-04T05:21:59.300Z,75.11
2018-05-04T05:24:27.686Z,75.12
2018-05-04T05:26:56.116Z,75.14
2018-05-04T05:29:24.496Z,75.30
2018-05-04T05:31:52.900Z,75.25
2018-05-04T05:34:21.302Z,75.06
2018-05-04T05:36:49.683Z,75.12
2018-05-04T05:39:18.108Z,74.66
2018-05-04T05:41:46.482Z,74.93
2018-05-04T05:44:14.851Z,74.77
2018-05-04T05:46:43.253Z,74.98
2018-05-04T05:49:11.656Z,74.95
2018-05-04T05:51:39.808Z,74.83
2018-05-04T05:54:08.188Z,74.59
2018-05-04T05:56:36.808Z,74.25
2018-05-04T05:59:05.274Z,74.64
2018-05-04T06:01:33.677Z,74.61
2018-05-04T06:04:02.093Z,74.65
2018-05-04T06:06:30.654Z,74.60
2018-05-04T06:08:59.043Z,74.25
2018-05-04T06:11:27.433Z,74.20
2018-05-04T06:13:56.574Z,74.46
2018-05-04T06:16:24.736Z,74.59
2018-05-04T06:18:53.114Z,74.42
2018-05-04T06:21:21.483Z,74.05
2018-05-04T06:23:49.870Z,73.93
2018-05-04T06:26:18.266Z,74.15
2018-05-04T06:28:46.640Z,73.26
2018-05-04T06:31:15.014Z,73.12
2018-05-04T06:33:43.440Z,73.40
2018-05-04T06:36:11.566Z,73.27
2018-05-04T06:38:39.737Z,73.06
2018-05-04T06:41:08.132Z,73.17
2018-05-04T06:43:36.509Z,73.25
2018-05-04T06:46:04.889Z,73.30
2018-05-04T06:48:33.273Z,73.40
2018-05-04T06:51:01.680Z,73.23
2018-05-04T06:53:30.120Z,72.90
2018-05-04T06:55:58.539Z,73.12
2018-05-04T06:58:26.963Z,73.34
2018-05-04T07:00:55.354Z,72.89
2018-05-04T07:03:23.757Z,73.24
2018-05-04T07:05:52.146Z,73.00
2018-05-04T07:08:20.522Z,72.55
2018-05-04T07:10:48.909Z,72.69
2018-05-04T07:13:17.309Z,72.56
2018-05-04T07:15:45.729Z,72.20
2018-05-04T07:18:14.125Z,72.19
2018-05-04T07:20:42.501Z,71.94
2018-05-04T07:23:10.882Z,72.13
2018-05-04T07:25:39.034Z,72.01
2018-05-04T07:28:07.431Z,72.05
2018-05-04T07:30:35.822Z,71.49
2018-05-04T07:33:04.249Z,71.07
2018-05-04T07:35:32.709Z,71.11
2018-05-04T07:38:00.865Z,71.76
2018-05-04T07:40:29.273Z,71.51
2018-05-04T07:42:57.458Z,71.00
2018-05-04T07:45:26.017Z,71.01
2018-05-04T07:47:54.410Z,70.22
2018-05-04T07:50:22.805Z,70.19
2018-05-04T07:52:51.228Z,70.27
2018-05-04T07:55:19.693Z,70.21
2018-05-04T07:57:48.195Z,69.68
2018-05-04T08:00:16.584Z,69.79
2018-05-04T08:02:45.103Z,69.84
2018-05-04T08:05:13.764Z,70.21
2018-05-04T08:07:42.247Z,70.46
2018-05-04T08:10:10.645Z,70.49
2018-05-04T08:12:39.025Z,69.80
2018-05-04T08:15:10.494Z,68.43
2018-05-04T08:17:38.906Z,68.86
2018-05-04T08:20:09.308Z,69.24
2018-05-04T08:22:37.805Z,68.72
2018-05-04T08:25:09.437Z,68.55
2018-05-04T08:27:37.847Z,68.57
2018-05-04T08:30:08.635Z,68.96
2018-05-04T08:32:37.029Z,68.54
2018-05-04T08:35:08.580Z,68.54
2018-05-04T08:37:36.731Z,67.78
2018-05-04T08:40:05.080Z,68.03
2018-05-04T08:42:35.577Z,67.94
2018-05-04T08:45:05.165Z,67.88
2018-05-04T08:47:34.484Z,68.48
2018-05-04T08:50:02.888Z,68.37
2018-05-04T08:52:31.268Z,67.91
2018-05-04T08:54:59.662Z,67.60
2018-05-04T08:57:28.128Z,68.19
2018-05-04T08:59:56.646Z,68.80
2018-05-04T09:02:24.810Z,68.15
2018-05-04T09:04:53.178Z,68.29
2018-05-04T09:07:21.657Z,67.79
2018-05-04T09:09:50.054Z,67.66
2018-05-04T09:12:18.480Z,67.24
2018-05-04T09:14:50.217Z,67.30
2018-05-04T09:17:18.609Z,66.71
2018-05-04T09:19:47.047Z,67.13
2018-05-04T09:22:15.604Z,67.12
2018-05-04T09:24:43.989Z,67.22
2018-05-04T09:27:12.362Z,66.23
2018-05-04T09:29:40.750Z,66.76
2018-05-04T09:32:09.149Z,66.41
2018-05-04T09:34:37.578Z,65.61
2018-05-04T09:37:05.977Z,66.18
2018-05-04T09:39:34.389Z,66.10
2018-05-04T09:42:02.774Z,65.78
2018-05-04T09:44:31.160Z,64.95
2018-05-04T09:46:59.534Z,65.50
2018-05-04T09:49:27.932Z,64.89
2018-05-04T09:51:56.325Z,65.16
2018-05-04T09:54:24.708Z,65.52
2018-05-04T09:56:53.093Z,65.52
2018-05-04T09:59:21.473Z,64.97
2018-05-04T10:01:49.865Z,65.23
2018-05-04T10:04:18.260Z,65.85
2018-05-04T10:06:46.637Z,65.20
2018-05-04T10:09:15.050Z,65.34
2018-05-04T10:11:43.593Z,65.01
2018-05-04T10:14:11.972Z,64.08
2018-05-04T10:16:40.363Z,64.02
2018-05-04T10:19:08.744Z,62.68
2018-05-04T10:21:37.117Z,63.50
2018-05-04T10:24:05.502Z,65.09
2018-05-04T10:26:33.895Z,64.72
2018-05-04T10:29:02.326Z,63.79
2018-05-04T10:31:30.794Z,63.52
2018-05-04T10:33:59.311Z,63.52
2018-05-04T10:36:27.696Z,62.57
2018-05-04T10:38:57.109Z,62.39
2018-05-04T10:41:25.565Z,63.53
2018-05-04T10:43:53.954Z,62.50
2018-05-04T10:46:22.392Z,62.81
2018-05-04T10:48:50.769Z,63.31
2018-05-04T10:51:19.167Z,62.99
2018-05-04T10:53:47.649Z,61.91
2018-05-04T10:56:15.818Z,61.22
2018-05-04T10:58:44.199Z,61.61
2018-05-04T11:01:12.590Z,61.79
2018-05-04T11:03:40.960Z,60.83
2018-05-04T11:06:09.336Z,62.06
2018-05-04T11:08:37.770Z,62.05
2018-05-04T11:11:05.925Z,61.99
2018-05-04T11:13:34.313Z,62.38
2018-05-04T11:16:02.698Z,61.92
2018-05-04T11:18:31.273Z,61.68
2018-05-04T11:20:59.643Z,62.21
2018-05-04T11:23:28.040Z,62.42
2018-05-04T11:25:56.426Z,61.29
2018-05-04T11:28:24.830Z,60.91
2018-05-04T11:30:53.221Z,61.39
2018-05-04T11:33:21.792Z,61.04
2018-05-04T11:35:50.167Z,60.89
2018-05-04T11:38:18.564Z,61.42
2018-05-04T11:40:46.952Z,61.55
2018-05-04T11:43:15.348Z,61.27
2018-05-04T11:45:43.726Z,61.36
2018-05-04T11:48:12.123Z,61.01
2018-05-04T11:50:40.504Z,60.38
2018-05-04T11:53:08.886Z,61.26
2018-05-04T11:55:37.265Z,61.36
2018-05-04T11:58:05.653Z,60.47
2018-05-04T12:00:34.039Z,61.30
2018-05-04T12:03:02.455Z,61.30
2018-05-04T12:05:30.855Z,60.78
2018-05-04T12:07:59.257Z,60.95
2018-05-04T12:10:27.661Z,61.44
2018-05-04T12:12:56.003Z,61.45
2018-05-04T12:15:24.396Z,61.40
2018-05-04T12:17:52.790Z,61.10
2018-05-04T12:20:21.149Z,60.56
2018-05-04T12:22:49.553Z,60.21
2018-05-04T12:25:18.176Z,60.36
2018-05-04T12:27:46.805Z,59.92
2018-05-04T12:30:15.389Z,60.13
2018-05-04T12:32:43.772Z,60.29
2018-05-04T12:35:12.148Z,59.66
2018-05-04T12:37:40.547Z,59.63
2018-05-04T12:40:09.445Z,57.95
2018-05-04T12:42:37.842Z,58.58
2018-05-04T12:45:08.863Z,57.79
2018-05-04T12:47:37.272Z,58.07
2018-05-04T12:50:07.815Z,58.69
2018-05-04T12:52:36.207Z,58.94
2018-05-04T12:55:07.188Z,59.53
2018-05-04T12:57:36.929Z,59.02
2018-05-04T13:00:07.553Z,58.72
2018-05-04T13:02:36.403Z,58.93
2018-05-04T13:05:06.496Z,59.44
2018-05-04T13:07:34.886Z,59.94
2018-05-04T13:10:03.278Z,59.62
2018-05-04T13:12:31.672Z,59.03
2018-05-04T13:15:00.139Z,58.25
2018-05-04T13:17:28.727Z,58.91
2018-05-04T13:19:57.007Z,59.03
2018-05-04T13:22:25.419Z,58.85
2018-05-04T13:24:53.822Z,58.37
2018-05-04T13:27:22.210Z,57.73
2018-05-04T13:29:50.630Z,57.77
2018-05-04T13:32:19.013Z,56.50
2018-05-04T13:34:47.389Z,56.95
2018-05-04T13:37:15.808Z,56.69
2018-05-04T13:39:44.228Z,56.46
2018-05-04T13:42:12.711Z,55.90
2018-05-04T13:44:41.357Z,55.83
2018-05-04T13:47:09.914Z,54.92
2018-05-04T13:49:38.307Z,53.95
2018-05-04T13:52:06.691Z,52.97
2018-05-04T13:54:35.094Z,53.46
2018-05-04T13:57:03.505Z,54.63
2018-05-04T13:59:31.889Z,54.52
2018-05-04T14:02:00.045Z,55.04
2018-05-04T14:04:28.686Z,52.60
2018-05-04T14:06:56.861Z,52.33
2018-05-04T14:09:26.384Z,51.79
2018-05-04T14:11:54.813Z,52.25
2018-05-04T14:14:22.961Z,51.25
2018-05-04T14:16:51.339Z,50.86
2018-05-04T14:19:19.734Z,51.55
2018-05-04T14:21:48.157Z,51.07
2018-05-04T14:24:16.742Z,50.87
2018-05-04T14:26:45.187Z,50.43
2018-05-04T14:29:13.601Z,51.28
2018-05-04T14:31:41.986Z,51.29
2018-05-04T14:34:10.381Z,51.58
2018-05-04T14:36:38.840Z,51.05
2018-05-04T14:39:07.230Z,50.98
2018-05-04T14:41:35.617Z,50.79
2018-05-04T14:44:04.015Z,49.93
2018-05-04T14:46:32.413Z,50.16
2018-05-04T14:49:00.855Z,50.49
2018-05-04T14:51:29.253Z,53.77
2018-05-04T14:53:57.962Z,55.43
2018-05-04T14:56:26.181Z,56.25
2018-05-04T14:58:54.590Z,56.07
2018-05-04T15:01:22.996Z,55.89
2018-05-04T15:03:51.437Z,56.56
2018-05-04T15:06:19.829Z,56.76
2018-05-04T15:08:48.238Z,56.53
2018-05-04T15:11:16.640Z,57.06
2018-05-04T15:13:45.060Z,56.75
2018-05-04T15:16:13.525Z,57.02
2018-05-04T15:18:41.932Z,57.07
2018-05-04T15:21:10.335Z,56.99
2018-05-04T15:23:38.951Z,57.08
2018-05-04T15:26:08.296Z,56.94
2018-05-04T15:28:36.472Z,56.85
2018-05-04T15:31:04.562Z,56.57
2018-05-04T15:33:32.987Z,56.97
2018-05-04T15:36:01.367Z,57.46
2018-05-04T15:38:29.849Z,57.16
2018-05-04T15:40:58.231Z,57.42
2018-05-04T15:43:26.310Z,57.31
2018-05-04T15:45:54.705Z,57.35
2018-05-04T15:48:28.539Z,57.63
2018-05-04T15:51:02.371Z,57.27
2018-05-04T15:53:30.779Z,57.46
2018-05-04T15:55:59.170Z,57.54
2018-05-04T15:58:27.575Z,57.61
2018-05-04T16:00:55.965Z,57.48
2018-05-04T16:03:24.420Z,57.87
2018-05-04T16:05:52.833Z,57.61
2018-05-04T16:08:21.211Z,58.07
2018-05-04T16:10:49.632Z,58.31
2018-05-04T16:13:18.030Z,58.01
2018-05-04T16:15:46.417Z,58.00
2018-05-04T16:18:14.824Z,58.02
2018-05-04T16:20:43.226Z,57.71
2018-05-04T16:23:11.634Z,57.39
2018-05-04T16:25:40.050Z,58.01
2018-05-04T16:28:09.246Z,58.23
2018-05-04T16:30:37.649Z,57.86
2018-05-04T16:33:05.806Z,57.92
2018-05-04T16:35:34.221Z,57.42
2018-05-04T16:38:02.605Z,54.21
2018-05-04T16:40:30.983Z,51.46
2018-05-04T16:42:59.357Z,49.82
2018-05-04T16:45:27.754Z,49.41
2018-05-04T16:48:01.542Z,49.10
2018-05-04T16:50:29.968Z,48.88
2018-05-04T16:52:58.505Z,47.94
2018-05-04T16:55:26.672Z,48.03
2018-05-04T16:57:54.836Z,46.94
2018-05-04T17:00:23.042Z,45.83
2018-05-04T17:02:51.415Z,45.68
2018-05-04T17:05:19.839Z,46.30
2018-05-04T17:07:48.006Z,46.50
2018-05-04T17:10:16.996Z,46.60
2018-05-04T17:12:45.235Z,47.04
2018-05-04T17:15:13.411Z,47.47
2018-05-04T17:17:41.554Z,47.97
2018-05-04T17:20:09.796Z,47.94
2018-05-04T17:22:38.044Z,48.23
2018-05-04T17:25:06.542Z,47.81
2018-05-04T17:27:34.970Z,48.11
2018-05-04T17:30:04.121Z,48.60
2018-05-04T17:32:33.702Z,49.06
2018-05-04T17:35:02.119Z,49.65
2018-05-04T17:37:30.548Z,50.19
2018-05-04T17:39:59.725Z,50.75
2018-05-04T17:42:28.136Z,51.25
2018-05-04T17:44:56.535Z,51.42
2018-05-04T17:47:24.966Z,51.39
2018-05-04T17:49:53.386Z,51.65
2018-05-04T17:52:21.787Z,51.94
2018-05-04T17:54:50.244Z,52.04
2018-05-04T17:57:18.653Z,52.11
2018-05-04T17:59:47.701Z,52.38
2018-05-04T18:02:16.161Z,52.54
2018-05-04T18:04:44.533Z,52.76
2018-05-04T18:07:12.915Z,52.95
2018-05-04T18:09:41.706Z,53.29
2018-05-04T18:12:10.104Z,53.62
2018-05-04T18:14:42.865Z,53.87
2018-05-04T18:17:11.718Z,54.27
2018-05-04T18:19:40.151Z,54.68
2018-05-04T18:22:08.533Z,54.86
2018-05-04T18:24:36.916Z,55.06
2018-05-04T18:27:05.317Z,55.08
2018-05-04T18:29:34.558Z,55.27
2018-05-04T18:32:02.951Z,55.54
2018-05-04T18:34:31.381Z,55.75
2018-05-04T18:37:00.537Z,55.80
2018-05-04T18:39:28.983Z,56.01
2018-05-04T18:41:57.372Z,56.31
2018-05-04T18:44:25.767Z,56.29
2018-05-04T18:46:54.212Z,56.42
2018-05-04T18:49:22.615Z,56.94
2018-05-04T18:51:51.027Z,56.75
2018-05-04T18:54:19.625Z,56.99
2018-05-04T18:56:48.031Z,57.11
2018-05-04T18:59:16.449Z,57.13
2018-05-04T19:01:44.951Z,57.21
2018-05-04T19:04:13.399Z,57.21
2018-05-04T19:06:41.787Z,57.17
2018-05-04T19:09:10.188Z,57.58
2018-05-04T19:11:38.588Z,57.91
2018-05-04T19:14:06.979Z,58.12
2018-05-04T19:16:35.383Z,58.36
2018-05-04T19:19:03.805Z,58.17
2018-05-04T19:21:32.246Z,58.29
2018-05-04T19:24:00.651Z,58.25
2018-05-04T19:26:29.082Z,58.60
2018-05-04T19:28:57.390Z,58.62
2018-05-04T19:31:25.821Z,58.70
2018-05-04T19:33:54.957Z,58.84
2018-05-04T19:36:23.352Z,59.21
2018-05-04T19:38:51.756Z,59.55
2018-05-04T19:41:20.373Z,59.67
2018-05-04T19:43:49.892Z,59.89
2018-05-04T19:46:18.300Z,60.29
2018-05-04T19:48:46.852Z,60.31
2018-05-04T19:51:15.390Z,60.48
2018-05-04T19:53:44.719Z,60.59
2018-05-04T19:56:13.111Z,61.11
2018-05-04T19:58:41.529Z,61.13
2018-05-04T20:01:10.137Z,61.47
2018-05-04T20:03:40.243Z,61.48
2018-05-04T20:06:09.867Z,61.55
2018-05-04T20:08:39.476Z,61.74
2018-05-04T20:11:07.857Z,61.98
2018-05-04T20:13:36.258Z,61.86
2018-05-04T20:16:04.633Z,62.03
2018-05-04T20:18:33.104Z,61.95
2018-05-04T20:21:02.433Z,61.99
2018-05-04T20:23:30.824Z,61.95
2018-05-04T20:25:59.213Z,62.07
2018-05-04T20:28:30.894Z,62.06
2018-05-04T20:30:59.315Z,61.90
2018-05-04T20:33:27.766Z,61.96
2018-05-04T20:35:56.350Z,62.04
2018-05-04T20:38:24.854Z,62.26
2018-05-04T20:40:53.048Z,62.49
2018-05-04T20:43:21.499Z,62.52
2018-05-04T20:45:49.883Z,62.60
2018-05-04T20:48:18.295Z,62.91
2018-05-04T20:50:47.859Z,63.01
2018-05-04T20:53:16.922Z,63.23
2018-05-04T20:55:45.335Z,63.17
2018-05-04T20:58:13.756Z,63.37
2018-05-04T21:00:42.171Z,63.63
2018-05-04T21:03:13.071Z,63.61
2018-05-04T21:05:41.955Z,63.83
2018-05-04T21:08:10.099Z,64.18
2018-05-04T21:10:38.529Z,64.43
2018-05-04T21:13:06.930Z,64.52
2018-05-04T21:15:35.753Z,64.82
2018-05-04T21:18:04.141Z,65.25
2018-05-04T21:20:32.524Z,65.23
2018-05-04T21:23:00.957Z,65.12
2018-05-04T21:25:30.042Z,65.26
2018-05-04T21:27:59.337Z,65.21
2018-05-04T21:30:28.787Z,65.35
2018-05-04T21:32:59.002Z,65.69
2018-05-04T21:35:29.906Z,65.81
2018-05-04T21:37:58.420Z,65.80
2018-05-04T21:40:26.874Z,65.74
2018-05-04T21:42:55.083Z,65.78
2018-05-04T21:45:23.477Z,65.87
2018-05-04T21:47:52.202Z,66.56
2018-05-04T21:50:20.646Z,66.85
2018-05-04T21:52:49.069Z,66.85
2018-05-04T21:55:17.223Z,67.26
2018-05-04T21:57:45.686Z,67.31
2018-05-04T22:00:14.163Z,67.57
2018-05-04T22:02:42.744Z,67.79
2018-05-04T22:05:11.144Z,68.02
2018-05-04T22:07:39.554Z,68.11
2018-05-04T22:10:10.082Z,68.57
2018-05-04T22:12:38.548Z,68.85
2018-05-04T22:15:07.401Z,68.75
2018-05-04T22:17:35.712Z,68.70
2018-05-04T22:20:04.235Z,68.46
2018-05-04T22:22:32.661Z,68.67
2018-05-04T22:25:01.065Z,68.89
2018-05-04T22:27:29.493Z,68.94
2018-05-04T22:29:57.899Z,69.12
2018-05-04T22:32:26.676Z,69.38
2018-05-04T22:34:55.051Z,69.77
2018-05-04T22:37:23.488Z,70.04
2018-05-04T22:39:51.882Z,70.46
2018-05-04T22:42:20.287Z,70.53
2018-05-04T22:44:48.670Z,70.86
2018-05-04T22:47:17.678Z,71.16
2018-05-04T22:49:46.901Z,71.59
2018-05-04T22:52:15.454Z,71.54
2018-05-04T22:54:43.877Z,71.47
2018-05-04T22:57:12.258Z,71.60
2018-05-04T22:59:40.478Z,71.70
2018-05-04T23:02:08.914Z,71.80
2018-05-04T23:04:37.777Z,72.37
2018-05-04T23:07:06.010Z,72.47
2018-05-04T23:09:35.064Z,72.57
2018-05-04T23:12:03.469Z,72.60
2018-05-04T23:14:31.865Z,72.87
2018-05-04T23:17:00.243Z,73.16
2018-05-04T23:19:28.645Z,73.26
2018-05-04T23:21:57.329Z,73.17
2018-05-04T23:24:26.091Z,73.30
2018-05-04T23:26:54.476Z,73.06
2018-05-04T23:29:22.892Z,73.17
2018-05-04T23:31:51.272Z,73.21
2018-05-04T23:34:19.657Z,73.38
2018-05-04T23:36:48.053Z,73.26
2018-05-04T23:39:16.500Z,73.15
2018-05-04T23:41:44.887Z,73.17
2018-05-04T23:44:13.361Z,72.95
2018-05-04T23:46:41.779Z,73.20
2018-05-04T23:49:11.626Z,72.78
2018-05-04T23:51:40.789Z,72.68
2018-05-04T23:54:09.753Z,72.65
2018-05-04T23:56:38.157Z,72.57
2018-05-04T23:59:06.551Z,72.59
